Terminal Aerodrome Forecast
Issued by NWS

Home | Current Version | Previous Version | Text Only | Print | Product List | Glossary On
Versions: 1 2 3 4 5 6 7 8 9 10 11 12 13 14
000
FTPA31 PHFO 210759 AAA
TAFHTO
TAF AMD
PHTO 210759Z 2108/2206 32005KT P6SM VCSH SCT025 BKN040
      TEMPO 2108/2112 BKN018
     FM212100 01010G18KT 5SM -SHRA SCT025 BKN035=

USA.gov is the U.S. government's official web portal to all federal, state and local government web resources and services.